createdAt,value
2018-07-26T00:01:45.751Z,20.30
2018-07-26T00:04:14.374Z,20.30
2018-07-26T00:06:42.964Z,20.20
2018-07-26T00:09:12.053Z,20.30
2018-07-26T00:11:40.993Z,20.20
2018-07-26T00:14:09.530Z,20.10
2018-07-26T00:16:38.082Z,20.10
2018-07-26T00:19:06.691Z,20.00
2018-07-26T00:21:35.248Z,20.00
2018-07-26T00:24:03.831Z,19.90
2018-07-26T00:26:32.357Z,19.90
2018-07-26T00:29:00.889Z,19.80
2018-07-26T00:31:29.409Z,19.90
2018-07-26T00:33:58.000Z,19.90
2018-07-26T00:36:26.551Z,19.80
2018-07-26T00:38:55.084Z,19.70
2018-07-26T00:41:23.662Z,19.70
2018-07-26T00:43:52.145Z,19.60
2018-07-26T00:46:20.652Z,19.60
2018-07-26T00:48:49.179Z,19.60
2018-07-26T00:51:17.765Z,19.50
2018-07-26T00:53:46.358Z,19.50
2018-07-26T00:56:14.886Z,19.50
2018-07-26T00:58:44.457Z,19.50
2018-07-26T01:01:12.966Z,19.50
2018-07-26T01:03:41.491Z,19.40
2018-07-26T01:06:10.024Z,19.40
2018-07-26T01:08:38.620Z,19.40
2018-07-26T01:11:07.289Z,19.50
2018-07-26T01:13:36.016Z,19.50
2018-07-26T01:16:04.885Z,19.50
2018-07-26T01:18:33.413Z,19.60
2018-07-26T01:21:02.049Z,19.50
2018-07-26T01:23:30.566Z,19.50
2018-07-26T01:25:59.147Z,19.40
2018-07-26T01:30:56.046Z,19.60
2018-07-26T01:33:24.837Z,19.60
2018-07-26T01:35:53.379Z,19.50
2018-07-26T01:38:22.116Z,19.50
2018-07-26T01:40:50.619Z,19.40
2018-07-26T01:43:55.776Z,19.30
2018-07-26T01:46:25.365Z,19.30
2018-07-26T01:48:53.939Z,19.20
2018-07-26T01:51:22.496Z,19.20
2018-07-26T01:53:51.060Z,19.20
2018-07-26T01:56:19.672Z,19.20
2018-07-26T01:58:48.236Z,19.20
2018-07-26T02:01:16.745Z,19.10
2018-07-26T02:03:45.310Z,19.00
2018-07-26T02:06:13.884Z,19.00
2018-07-26T02:08:42.391Z,19.10
2018-07-26T02:11:10.919Z,19.00
2018-07-26T02:13:39.445Z,19.00
2018-07-26T02:16:08.000Z,18.90
2018-07-26T02:18:36.541Z,18.90
2018-07-26T02:21:05.115Z,18.80
2018-07-26T02:23:33.728Z,18.80
2018-07-26T02:26:02.310Z,18.80
2018-07-26T02:28:30.862Z,18.80
2018-07-26T02:30:59.381Z,18.70
2018-07-26T02:33:27.922Z,18.60
2018-07-26T02:35:56.474Z,18.70
2018-07-26T02:38:25.888Z,18.70
2018-07-26T02:40:54.508Z,18.70
2018-07-26T02:43:23.046Z,18.80
2018-07-26T02:45:51.553Z,18.80
2018-07-26T02:48:20.091Z,18.80
2018-07-26T02:50:48.626Z,18.70
2018-07-26T02:53:17.168Z,18.70
2018-07-26T02:55:45.671Z,18.70
2018-07-26T02:58:14.225Z,18.70
2018-07-26T03:00:42.754Z,18.70
2018-07-26T03:03:11.279Z,18.70
2018-07-26T03:05:40.308Z,18.80
2018-07-26T03:08:08.825Z,18.80
2018-07-26T03:10:37.302Z,18.80
2018-07-26T03:13:06.018Z,18.70
2018-07-26T03:15:34.987Z,18.80
2018-07-26T03:18:03.566Z,18.70
2018-07-26T03:20:32.108Z,18.70
2018-07-26T03:23:00.741Z,18.80
2018-07-26T03:25:29.324Z,18.70
2018-07-26T03:27:57.862Z,18.60
2018-07-26T03:32:54.625Z,18.50
2018-07-26T03:35:23.152Z,18.50
2018-07-26T03:37:51.648Z,18.40
2018-07-26T03:40:20.171Z,18.30
2018-07-26T03:42:48.932Z,18.20
2018-07-26T03:45:17.443Z,18.10
2018-07-26T03:50:14.315Z,18.10
2018-07-26T03:52:42.887Z,18.10
2018-07-26T03:55:11.518Z,18.00
2018-07-26T03:57:40.073Z,18.20
2018-07-26T04:00:08.627Z,18.20
2018-07-26T04:02:37.140Z,18.10
2018-07-26T04:05:05.683Z,18.10
2018-07-26T04:07:34.209Z,18.10
2018-07-26T04:10:02.730Z,18.10
2018-07-26T04:12:31.270Z,18.00
2018-07-26T04:14:59.790Z,18.00
2018-07-26T04:17:28.339Z,18.10
2018-07-26T04:19:56.955Z,18.10
2018-07-26T04:22:25.476Z,18.20
2018-07-26T04:24:53.999Z,18.10
2018-07-26T04:27:22.543Z,18.10
2018-07-26T04:29:51.034Z,18.20
2018-07-26T04:32:19.671Z,18.30
2018-07-26T04:34:48.237Z,18.30
2018-07-26T04:37:16.776Z,18.30
2018-07-26T04:39:45.269Z,18.40
2018-07-26T04:42:13.805Z,18.40
2018-07-26T04:44:42.312Z,18.40
2018-07-26T04:54:34.378Z,18.60
2018-07-26T04:57:02.905Z,19.20
2018-07-26T05:01:59.622Z,19.50
2018-07-26T05:04:28.137Z,19.70
2018-07-26T05:06:56.661Z,19.90
2018-07-26T05:09:25.262Z,19.90
2018-07-26T05:11:53.793Z,20.00
2018-07-26T05:14:22.335Z,20.10
2018-07-26T05:16:50.850Z,20.10
2018-07-26T05:19:19.346Z,20.50
2018-07-26T05:21:47.877Z,20.50
2018-07-26T05:24:16.414Z,20.40
2018-07-26T05:26:44.980Z,20.50
2018-07-26T05:29:13.523Z,20.70
2018-07-26T05:31:42.363Z,20.90
2018-07-26T05:34:10.973Z,21.00
2018-07-26T05:36:39.688Z,20.90
2018-07-26T05:39:10.495Z,20.90
2018-07-26T05:41:39.643Z,20.70
2018-07-26T05:44:08.281Z,20.80
2018-07-26T05:46:36.939Z,20.80
2018-07-26T05:49:05.715Z,20.90
2018-07-26T05:51:34.596Z,20.80
2018-07-26T05:54:03.263Z,20.80
2018-07-26T05:56:32.081Z,20.90
2018-07-26T05:59:00.780Z,21.00
2018-07-26T06:01:29.536Z,21.00
2018-07-26T06:03:58.323Z,21.00
2018-07-26T06:06:26.954Z,21.10
2018-07-26T06:08:55.632Z,21.10
2018-07-26T06:11:24.274Z,21.20
2018-07-26T06:13:52.842Z,21.80
2018-07-26T06:16:21.591Z,22.20
2018-07-26T06:18:50.221Z,22.90
2018-07-26T06:21:18.843Z,23.10
2018-07-26T06:23:47.511Z,23.70
2018-07-26T06:26:16.107Z,24.10
2018-07-26T06:28:45.188Z,24.10
2018-07-26T06:31:14.035Z,24.40
2018-07-26T06:33:42.865Z,24.90
2018-07-26T06:36:11.478Z,25.40
2018-07-26T06:38:40.240Z,24.90
2018-07-26T06:41:08.938Z,23.80
2018-07-26T06:43:37.538Z,24.20
2018-07-26T06:46:06.218Z,25.20
2018-07-26T06:48:34.934Z,25.90
2018-07-26T06:51:03.873Z,26.50
2018-07-26T06:53:33.229Z,27.10
2018-07-26T06:56:01.879Z,27.30
2018-07-26T06:58:30.551Z,27.90
2018-07-26T07:00:59.416Z,27.00
2018-07-26T07:03:28.161Z,27.20
2018-07-26T07:05:56.822Z,27.20
2018-07-26T07:08:25.544Z,27.00
2018-07-26T07:10:54.162Z,26.90
2018-07-26T07:13:22.790Z,26.90
2018-07-26T07:15:51.623Z,27.00
2018-07-26T07:18:20.498Z,27.50
2018-07-26T07:20:49.257Z,27.40
2018-07-26T07:23:17.988Z,27.40
2018-07-26T07:25:46.601Z,27.90
2018-07-26T07:28:15.224Z,27.10
2018-07-26T07:30:43.993Z,27.50
2018-07-26T07:33:12.665Z,27.80
2018-07-26T07:35:41.261Z,27.90
2018-07-26T07:38:09.885Z,28.30
2018-07-26T07:40:39.301Z,28.30
2018-07-26T07:43:07.920Z,28.30
2018-07-26T07:45:36.626Z,28.80
2018-07-26T07:48:05.552Z,29.50
2018-07-26T07:50:34.168Z,29.40
2018-07-26T07:53:02.949Z,29.30
2018-07-26T07:55:31.679Z,28.90
2018-07-26T07:58:00.448Z,28.90
2018-07-26T08:00:29.079Z,29.20
2018-07-26T08:02:57.720Z,29.40
2018-07-26T08:05:26.704Z,29.50
2018-07-26T08:13:42.088Z,30.00
2018-07-26T08:16:10.887Z,30.10
2018-07-26T08:18:39.651Z,29.80
2018-07-26T08:21:08.440Z,30.20
2018-07-26T08:23:37.150Z,30.20
2018-07-26T08:26:06.170Z,30.90
2018-07-26T08:28:35.064Z,31.20
2018-07-26T08:31:03.885Z,31.50
2018-07-26T08:33:32.512Z,31.50
2018-07-26T08:36:01.119Z,31.20
2018-07-26T08:38:29.878Z,31.60
2018-07-26T08:40:58.901Z,31.80
2018-07-26T08:43:27.639Z,31.90
2018-07-26T08:45:56.381Z,31.50
2018-07-26T08:48:25.172Z,32.10
2018-07-26T08:50:53.831Z,32.40
2018-07-26T08:55:50.837Z,32.40
2018-07-26T08:58:19.672Z,33.00
2018-07-26T09:00:48.288Z,32.70
2018-07-26T09:05:45.247Z,34.10
2018-07-26T09:08:13.844Z,33.70
2018-07-26T09:10:42.476Z,33.80
2018-07-26T09:13:11.115Z,33.70
2018-07-26T09:18:08.075Z,33.90
2018-07-26T09:20:36.809Z,33.90
2018-07-26T09:23:06.296Z,33.90
2018-07-26T09:25:34.987Z,34.00
2018-07-26T09:28:03.776Z,33.60
2018-07-26T09:30:32.426Z,34.00
2018-07-26T09:33:01.114Z,34.50
2018-07-26T09:35:29.787Z,34.10
2018-07-26T09:37:58.447Z,34.00
2018-07-26T09:40:27.163Z,34.50
2018-07-26T09:45:24.256Z,35.30
2018-07-26T09:47:53.035Z,34.70
2018-07-26T09:50:22.467Z,35.80
2018-07-26T09:52:51.163Z,35.40
2018-07-26T09:55:19.763Z,35.40
2018-07-26T09:57:48.509Z,35.80
2018-07-26T10:00:21.445Z,35.20
2018-07-26T10:02:50.088Z,35.40
2018-07-26T10:05:18.721Z,36.30
2018-07-26T10:10:47.165Z,35.60
2018-07-26T10:13:15.825Z,36.60
2018-07-26T10:15:44.454Z,36.30
2018-07-26T10:18:13.187Z,35.70
2018-07-26T10:20:41.853Z,35.90
2018-07-26T10:23:10.667Z,36.00
2018-07-26T10:25:39.280Z,36.10
2018-07-26T10:28:08.046Z,35.70
2018-07-26T10:30:36.666Z,36.50
2018-07-26T10:33:05.597Z,36.80
2018-07-26T10:35:34.234Z,36.90
2018-07-26T10:38:03.066Z,36.10
2018-07-26T10:40:31.872Z,35.70
2018-07-26T10:43:00.701Z,36.30
2018-07-26T10:45:29.634Z,36.40
2018-07-26T10:50:52.608Z,36.90
2018-07-26T10:53:21.380Z,37.60
2018-07-26T10:55:50.126Z,37.80
2018-07-26T10:58:18.737Z,36.70
2018-07-26T11:00:47.607Z,38.00
2018-07-26T11:03:16.233Z,37.70
2018-07-26T11:05:45.164Z,38.00
2018-07-26T11:08:13.805Z,37.50
2018-07-26T11:10:42.404Z,37.50
2018-07-26T11:13:11.188Z,38.80
2018-07-26T11:15:39.883Z,38.30
2018-07-26T11:18:08.517Z,38.60
2018-07-26T11:20:37.777Z,37.00
2018-07-26T11:23:06.479Z,37.30
2018-07-26T11:25:35.267Z,38.30
2018-07-26T11:28:03.954Z,38.10
2018-07-26T11:30:33.160Z,37.60
2018-07-26T11:33:01.924Z,38.50
2018-07-26T11:35:30.644Z,39.00
2018-07-26T11:37:59.341Z,38.70
2018-07-26T11:40:28.089Z,37.90
2018-07-26T11:42:57.532Z,38.40
2018-07-26T11:45:26.183Z,37.90
2018-07-26T11:47:54.827Z,37.20
2018-07-26T11:50:23.460Z,38.40
2018-07-26T11:52:52.993Z,39.30
2018-07-26T11:55:21.764Z,38.30
2018-07-26T11:57:50.390Z,37.80
2018-07-26T12:00:19.012Z,38.70
2018-07-26T12:02:47.626Z,39.90
2018-07-26T12:05:16.274Z,39.50
2018-07-26T12:07:44.892Z,38.80
2018-07-26T12:10:13.640Z,39.30
2018-07-26T12:12:42.348Z,40.90
2018-07-26T12:15:11.092Z,41.40
2018-07-26T12:17:39.702Z,42.00
2018-07-26T12:20:08.379Z,43.60
2018-07-26T12:22:37.001Z,43.20
2018-07-26T12:25:05.718Z,43.60
2018-07-26T12:27:34.304Z,43.70
2018-07-26T12:30:02.964Z,43.70
2018-07-26T12:32:31.548Z,43.70
2018-07-26T12:35:00.222Z,43.40
2018-07-26T12:37:28.855Z,44.30
2018-07-26T12:39:57.644Z,44.80
2018-07-26T12:42:26.356Z,45.10
2018-07-26T12:44:55.180Z,45.90
2018-07-26T12:47:24.301Z,44.10
2018-07-26T12:49:53.061Z,43.00
2018-07-26T12:52:21.901Z,45.50
2018-07-26T12:54:50.968Z,46.10
2018-07-26T12:57:20.032Z,45.00
2018-07-26T12:59:48.758Z,45.50
2018-07-26T13:02:17.400Z,44.40
2018-07-26T13:04:45.999Z,46.00
2018-07-26T13:07:14.791Z,44.20
2018-07-26T13:09:43.392Z,43.20
2018-07-26T13:12:12.040Z,44.70
2018-07-26T13:14:40.824Z,43.50
2018-07-26T13:17:09.597Z,44.40
2018-07-26T13:19:38.255Z,40.10
2018-07-26T13:22:06.845Z,43.20
2018-07-26T13:24:35.576Z,43.70
2018-07-26T13:27:04.196Z,43.90
2018-07-26T13:29:32.806Z,45.40
2018-07-26T13:32:01.481Z,46.70
2018-07-26T13:34:29.976Z,45.90
2018-07-26T13:36:58.499Z,45.40
2018-07-26T13:39:27.014Z,43.30
2018-07-26T13:41:55.519Z,41.60
2018-07-26T13:44:24.830Z,42.30
2018-07-26T13:46:53.345Z,44.50
2018-07-26T13:49:21.850Z,46.10
2018-07-26T13:51:50.399Z,45.30
2018-07-26T13:54:18.977Z,46.20
2018-07-26T13:56:47.486Z,46.30
2018-07-26T13:59:15.979Z,46.20
2018-07-26T14:01:44.520Z,44.20
2018-07-26T14:04:13.116Z,44.60
2018-07-26T14:06:41.627Z,43.50
2018-07-26T14:09:11.414Z,40.30
2018-07-26T14:11:40.321Z,39.30
2018-07-26T14:14:09.114Z,38.10
2018-07-26T14:16:37.882Z,37.70
2018-07-26T14:19:07.188Z,39.20
2018-07-26T14:21:35.720Z,41.70
2018-07-26T14:26:36.769Z,41.60
2018-07-26T14:29:05.305Z,40.10
2018-07-26T14:31:33.869Z,38.10
2018-07-26T14:34:02.551Z,38.00
2018-07-26T14:36:32.738Z,40.40
2018-07-26T14:41:21.033Z,38.00
2018-07-26T14:43:49.584Z,36.40
2018-07-26T14:46:18.102Z,36.60
2018-07-26T14:48:46.657Z,37.00
2018-07-26T14:51:15.277Z,36.50
2018-07-26T14:53:43.808Z,38.50
2018-07-26T14:56:12.349Z,36.80
2018-07-26T14:58:40.922Z,40.10
2018-07-26T15:01:09.747Z,39.30
2018-07-26T15:03:38.268Z,38.40
2018-07-26T15:06:06.821Z,38.30
2018-07-26T15:08:35.351Z,38.80
2018-07-26T15:11:03.883Z,38.20
2018-07-26T15:13:32.404Z,39.20
2018-07-26T15:16:00.899Z,42.20
2018-07-26T15:18:29.478Z,39.90
2018-07-26T15:20:58.090Z,38.70
2018-07-26T15:23:26.694Z,40.30
2018-07-26T15:25:55.343Z,42.50
2018-07-26T15:28:23.915Z,41.50
2018-07-26T15:30:52.576Z,39.60
2018-07-26T15:33:21.235Z,40.70
2018-07-26T15:35:49.914Z,40.60
2018-07-26T15:38:18.563Z,40.90
2018-07-26T15:40:47.168Z,39.30
2018-07-26T15:43:15.728Z,38.30
2018-07-26T15:45:44.367Z,40.30
2018-07-26T15:48:13.045Z,39.70
2018-07-26T15:50:41.667Z,37.10
2018-07-26T15:53:10.273Z,36.60
2018-07-26T15:55:40.005Z,36.00
2018-07-26T15:58:08.577Z,37.40
2018-07-26T16:00:37.220Z,36.70
2018-07-26T16:03:06.051Z,36.00
2018-07-26T16:05:34.708Z,35.80
2018-07-26T16:08:03.325Z,35.20
2018-07-26T16:10:31.987Z,35.40
2018-07-26T16:13:00.626Z,35.50
2018-07-26T16:15:29.250Z,35.20
2018-07-26T16:17:58.006Z,35.30
2018-07-26T16:20:26.529Z,36.10
2018-07-26T16:22:55.136Z,36.90
2018-07-26T16:25:24.214Z,36.70
2018-07-26T16:27:53.487Z,35.70
2018-07-26T16:30:22.151Z,35.90
2018-07-26T16:32:50.776Z,35.30
2018-07-26T16:35:19.435Z,35.60
2018-07-26T16:37:48.017Z,35.60
2018-07-26T16:40:16.820Z,35.50
2018-07-26T16:42:45.433Z,35.00
2018-07-26T16:45:14.071Z,35.10
2018-07-26T16:47:42.758Z,34.90
2018-07-26T16:50:11.366Z,35.10
2018-07-26T16:52:40.018Z,35.00
2018-07-26T16:55:08.712Z,35.00
2018-07-26T16:57:37.372Z,34.80
2018-07-26T17:00:07.557Z,35.00
2018-07-26T17:02:36.192Z,35.20
2018-07-26T17:05:05.805Z,34.60
2018-07-26T17:07:34.470Z,34.80
2018-07-26T17:10:03.229Z,34.70
2018-07-26T17:12:31.903Z,34.50
2018-07-26T17:15:00.485Z,34.50
2018-07-26T17:17:29.068Z,34.60
2018-07-26T17:19:57.740Z,34.50
2018-07-26T17:22:26.411Z,34.60
2018-07-26T17:24:55.079Z,34.50
2018-07-26T17:27:23.689Z,34.30
2018-07-26T17:29:52.320Z,34.20
2018-07-26T17:32:21.026Z,34.30
2018-07-26T17:34:49.660Z,34.10
2018-07-26T17:37:18.295Z,33.90
2018-07-26T17:39:46.977Z,33.80
2018-07-26T17:42:15.682Z,33.60
2018-07-26T17:44:44.288Z,33.50
2018-07-26T17:47:13.012Z,33.50
2018-07-26T17:49:41.676Z,33.50
2018-07-26T17:52:10.439Z,33.30
2018-07-26T17:54:39.079Z,33.20
2018-07-26T17:57:07.731Z,33.40
2018-07-26T17:59:36.291Z,33.30
2018-07-26T18:02:04.917Z,33.10
2018-07-26T18:04:33.510Z,33.10
2018-07-26T18:07:02.144Z,33.00
2018-07-26T18:09:30.713Z,33.00
2018-07-26T18:11:59.271Z,32.90
2018-07-26T18:14:27.815Z,32.90
2018-07-26T18:16:56.651Z,32.90
2018-07-26T18:19:25.971Z,32.90
2018-07-26T18:21:54.593Z,32.70
2018-07-26T18:24:23.247Z,32.70
2018-07-26T18:26:51.832Z,32.60
2018-07-26T18:29:20.443Z,32.60
2018-07-26T18:31:49.119Z,32.50
2018-07-26T18:39:14.229Z,32.30
2018-07-26T18:41:42.877Z,32.30
2018-07-26T18:44:11.610Z,32.10
2018-07-26T18:46:40.380Z,32.00
2018-07-26T18:49:09.854Z,32.00
2018-07-26T18:51:38.551Z,31.90
2018-07-26T18:54:07.336Z,32.20
2018-07-26T18:56:35.943Z,32.20
2018-07-26T19:01:33.329Z,32.10
2018-07-26T19:04:02.038Z,31.90
2018-07-26T19:06:30.725Z,31.80
2018-07-26T19:08:59.330Z,31.30
2018-07-26T19:11:28.103Z,31.00
2018-07-26T19:13:57.214Z,30.80
2018-07-26T19:16:25.889Z,30.70
2018-07-26T19:18:54.460Z,30.50
2018-07-26T19:21:23.062Z,30.40
2018-07-26T19:23:51.684Z,30.30
2018-07-26T19:26:20.234Z,30.20
2018-07-26T19:28:49.005Z,30.10
2018-07-26T19:31:17.841Z,30.00
2018-07-26T19:36:15.318Z,29.70
2018-07-26T19:38:44.163Z,29.50
2018-07-26T19:41:12.822Z,29.30
2018-07-26T19:43:41.510Z,29.20
2018-07-26T19:46:10.344Z,29.00
2018-07-26T19:48:39.039Z,28.80
2018-07-26T19:51:07.912Z,28.70
2018-07-26T19:53:36.901Z,28.70
2018-07-26T19:56:05.904Z,28.50
2018-07-26T19:58:34.812Z,28.50
2018-07-26T20:01:03.799Z,28.40
2018-07-26T20:03:32.565Z,28.30
2018-07-26T20:06:01.461Z,28.10
2018-07-26T20:08:30.187Z,28.00
2018-07-26T20:10:58.927Z,27.90
2018-07-26T20:13:28.336Z,27.80
2018-07-26T20:15:57.248Z,27.70
2018-07-26T20:24:13.010Z,27.60
2018-07-26T20:26:42.254Z,27.50
2018-07-26T20:29:11.312Z,27.40
2018-07-26T20:31:40.187Z,27.40
2018-07-26T20:34:09.029Z,27.30
2018-07-26T20:36:38.063Z,27.30
2018-07-26T20:39:10.312Z,27.20
2018-07-26T20:41:39.401Z,27.20
2018-07-26T20:44:08.437Z,27.20
2018-07-26T20:46:37.688Z,27.30
2018-07-26T20:49:06.841Z,27.10
2018-07-26T20:51:36.068Z,27.00
2018-07-26T20:54:05.298Z,27.00
2018-07-26T20:56:34.657Z,26.90
2018-07-26T20:59:03.932Z,26.80
2018-07-26T21:01:32.924Z,26.70
2018-07-26T21:04:01.969Z,26.70
2018-07-26T21:06:31.531Z,26.60
2018-07-26T21:09:00.556Z,26.70
2018-07-26T21:11:29.649Z,26.60
2018-07-26T21:13:58.542Z,26.60
2018-07-26T21:16:28.002Z,26.60
2018-07-26T21:18:56.756Z,26.60
2018-07-26T21:21:25.962Z,26.60
2018-07-26T21:23:55.430Z,26.60
2018-07-26T21:26:24.436Z,26.50
2018-07-26T21:28:53.507Z,26.50
2018-07-26T21:31:22.625Z,26.40
2018-07-26T21:33:52.270Z,26.30
2018-07-26T21:36:21.822Z,26.20
2018-07-26T21:38:50.785Z,26.10
2018-07-26T21:41:20.160Z,26.10
2018-07-26T21:43:49.323Z,26.00
2018-07-26T21:46:17.956Z,26.00
2018-07-26T21:48:46.598Z,26.00
2018-07-26T21:51:15.197Z,25.90
2018-07-26T21:53:43.978Z,25.90
2018-07-26T21:56:12.789Z,25.80
2018-07-26T21:58:41.425Z,25.70
2018-07-26T22:01:10.285Z,25.70
2018-07-26T22:03:39.076Z,25.70
2018-07-26T22:06:07.703Z,25.60
2018-07-26T22:08:36.436Z,25.60
2018-07-26T22:11:05.118Z,25.50
2018-07-26T22:13:33.707Z,25.40
2018-07-26T22:16:02.324Z,25.40
2018-07-26T22:18:30.976Z,25.50
2018-07-26T22:21:00.216Z,25.60
2018-07-26T22:23:29.132Z,25.50
2018-07-26T22:25:57.761Z,25.50
2018-07-26T22:28:26.384Z,25.40
2018-07-26T22:30:54.990Z,25.20
2018-07-26T22:33:23.633Z,24.90
2018-07-26T22:35:52.253Z,24.70
2018-07-26T22:38:20.940Z,24.70
2018-07-26T22:43:17.958Z,24.60
2018-07-26T22:45:46.642Z,24.60
2018-07-26T22:48:15.229Z,24.50
2018-07-26T22:50:44.473Z,24.50
2018-07-26T22:53:13.313Z,24.50
2018-07-26T22:55:41.989Z,24.60
2018-07-26T22:58:10.705Z,24.40
2018-07-26T23:00:39.461Z,24.30
2018-07-26T23:03:08.101Z,24.40
2018-07-26T23:05:36.787Z,24.40
2018-07-26T23:08:05.793Z,24.30
2018-07-26T23:10:35.068Z,24.40
2018-07-26T23:13:03.680Z,24.20
2018-07-26T23:15:32.303Z,24.10
2018-07-26T23:18:01.056Z,24.20
2018-07-26T23:20:29.867Z,24.10
2018-07-26T23:22:58.507Z,24.10
2018-07-26T23:25:27.081Z,24.10
2018-07-26T23:27:55.778Z,24.00
2018-07-26T23:30:24.455Z,24.00
2018-07-26T23:32:53.074Z,23.90
2018-07-26T23:35:21.688Z,23.90
2018-07-26T23:37:50.415Z,23.90
2018-07-26T23:40:19.164Z,23.80
2018-07-26T23:42:47.759Z,23.80
2018-07-26T23:45:16.639Z,23.70
2018-07-26T23:47:45.224Z,23.70
2018-07-26T23:50:13.806Z,23.70
2018-07-26T23:52:42.773Z,23.60
2018-07-26T23:55:11.443Z,23.70
2018-07-26T23:57:40.164Z,23.70
